sensor_id;sensor_type;location;lat;lon;timestamp;temperature;humidity
17341;DHT22;8788;49.930;8.660;2022-12-05T04:02:53;5.30;99.90
17341;DHT22;8788;49.930;8.660;2022-12-05T04:05:24;5.30;99.90
17341;DHT22;8788;49.930;8.660;2022-12-05T04:07:54;5.30;99.90
17341;DHT22;8788;49.930;8.660;2022-12-05T04:10:27;5.40;99.90
17341;DHT22;8788;49.930;8.660;2022-12-05T04:12:56;5.40;99.90
17341;DHT22;8788;49.930;8.660;2022-12-05T04:15:27;5.40;99.90
17341;DHT22;8788;49.930;8.660;2022-12-05T04:18:23;5.40;99.90
17341;DHT22;8788;49.930;8.660;2022-12-05T04:20:51;5.50;99.90
17341;DHT22;8788;49.930;8.660;2022-12-05T04:23:36;5.50;99.90
17341;DHT22;8788;49.930;8.660;2022-12-05T04:26:07;5.50;99.90
17341;DHT22;8788;49.930;8.660;2022-12-05T04:28:40;5.50;99.90
17341;DHT22;8788;49.930;8.660;2022-12-05T04:31:16;5.50;99.90
17341;DHT22;8788;49.930;8.660;2022-12-05T04:33:49;5.60;99.90
17341;DHT22;8788;49.930;8.660;2022-12-05T04:36:22;5.60;99.90
17341;DHT22;8788;49.930;8.660;2022-12-05T04:38:51;5.60;99.90
17341;DHT22;8788;49.930;8.660;2022-12-05T04:41:21;5.60;99.90
17341;DHT22;8788;49.930;8.660;2022-12-05T04:43:51;5.60;99.90
17341;DHT22;8788;49.930;8.660;2022-12-05T04:46:20;5.60;99.90
17341;DHT22;8788;49.930;8.660;2022-12-05T04:48:52;5.50;99.90
17341;DHT22;8788;49.930;8.660;2022-12-05T04:51:24;5.50;99.90
17341;DHT22;8788;49.930;8.660;2022-12-05T04:53:54;5.50;99.90
17341;DHT22;8788;49.930;8.660;2022-12-05T04:56:26;5.50;99.90
17341;DHT22;8788;49.930;8.660;2022-12-05T04:58:55;5.40;99.90
17341;DHT22;8788;49.930;8.660;2022-12-05T05:01:29;5.40;99.90
17341;DHT22;8788;49.930;8.660;2022-12-05T05:04:04;5.30;99.90
17341;DHT22;8788;49.930;8.660;2022-12-05T05:06:32;5.30;99.90
17341;DHT22;8788;49.930;8.660;2022-12-05T05:09:02;5.20;99.90
17341;DHT22;8788;49.930;8.660;2022-12-05T05:11:32;5.10;99.90
17341;DHT22;8788;49.930;8.660;2022-12-05T05:14:00;5.20;99.90
17341;DHT22;8788;49.930;8.660;2022-12-05T05:16:29;5.20;99.90
17341;DHT22;8788;49.930;8.660;2022-12-05T05:18:58;5.20;99.90
17341;DHT22;8788;49.930;8.660;2022-12-05T05:21:27;5.20;99.90
17341;DHT22;8788;49.930;8.660;2022-12-05T05:23:55;5.10;99.90
17341;DHT22;8788;49.930;8.660;2022-12-05T05:26:23;5.10;99.90
17341;DHT22;8788;49.930;8.660;2022-12-05T05:28:51;5.00;99.90
17341;DHT22;8788;49.930;8.660;2022-12-05T05:31:19;5.10;99.90
17341;DHT22;8788;49.930;8.660;2022-12-05T05:33:47;5.10;99.90
17341;DHT22;8788;49.930;8.660;2022-12-05T05:36:16;5.10;99.90
17341;DHT22;8788;49.930;8.660;2022-12-05T05:38:45;5.20;99.90
17341;DHT22;8788;49.930;8.660;2022-12-05T05:41:14;5.10;99.90
17341;DHT22;8788;49.930;8.660;2022-12-05T05:43:42;5.10;99.90
17341;DHT22;8788;49.930;8.660;2022-12-05T05:46:10;5.00;99.90
17341;DHT22;8788;49.930;8.660;2022-12-05T05:48:37;5.10;99.90
17341;DHT22;8788;49.930;8.660;2022-12-05T05:51:05;5.10;99.90
17341;DHT22;8788;49.930;8.660;2022-12-05T05:53:33;5.10;99.90
17341;DHT22;8788;49.930;8.660;2022-12-05T05:56:01;5.10;99.90
17341;DHT22;8788;49.930;8.660;2022-12-05T05:58:28;5.00;99.90
17341;DHT22;8788;49.930;8.660;2022-12-05T06:01:02;5.10;99.90
17341;DHT22;8788;49.930;8.660;2022-12-05T06:03:29;5.10;99.90
17341;DHT22;8788;49.930;8.660;2022-12-05T06:05:56;5.20;99.90
17341;DHT22;8788;49.930;8.660;2022-12-05T06:08:24;5.20;99.90
17341;DHT22;8788;49.930;8.660;2022-12-05T06:10:53;5.20;99.90
17341;DHT22;8788;49.930;8.660;2022-12-05T06:13:20;5.20;99.90
17341;DHT22;8788;49.930;8.660;2022-12-05T06:15:47;5.20;99.90
17341;DHT22;8788;49.930;8.660;2022-12-05T06:18:14;5.10;99.90
17341;DHT22;8788;49.930;8.660;2022-12-05T06:20:42;5.10;99.90
17341;DHT22;8788;49.930;8.660;2022-12-05T06:23:16;4.90;99.90
17341;DHT22;8788;49.930;8.660;2022-12-05T06:25:46;4.90;99.90
17341;DHT22;8788;49.930;8.660;2022-12-05T06:28:15;4.90;99.90
17341;DHT22;8788;49.930;8.660;2022-12-05T06:30:42;4.90;99.90
17341;DHT22;8788;49.930;8.660;2022-12-05T06:33:09;4.90;99.90
17341;DHT22;8788;49.930;8.660;2022-12-05T06:35:37;4.90;99.90
17341;DHT22;8788;49.930;8.660;2022-12-05T06:38:05;5.00;99.90
17341;DHT22;8788;49.930;8.660;2022-12-05T06:40:33;5.10;99.90
17341;DHT22;8788;49.930;8.660;2022-12-05T06:43:00;5.10;99.90
17341;DHT22;8788;49.930;8.660;2022-12-05T06:45:28;5.10;99.90
17341;DHT22;8788;49.930;8.660;2022-12-05T06:47:55;5.10;99.90
17341;DHT22;8788;49.930;8.660;2022-12-05T06:50:23;5.20;99.90
17341;DHT22;8788;49.930;8.660;2022-12-05T06:52:50;5.20;99.90
17341;DHT22;8788;49.930;8.660;2022-12-05T06:55:17;5.30;99.90
17341;DHT22;8788;49.930;8.660;2022-12-05T06:57:44;5.30;99.90
17341;DHT22;8788;49.930;8.660;2022-12-05T07:00:12;5.20;99.90
17341;DHT22;8788;49.930;8.660;2022-12-05T07:02:58;5.30;99.90
17341;DHT22;8788;49.930;8.660;2022-12-05T07:05:25;5.30;99.90
17341;DHT22;8788;49.930;8.660;2022-12-05T07:07:52;5.40;99.90
17341;DHT22;8788;49.930;8.660;2022-12-05T07:10:19;5.40;99.90
17341;DHT22;8788;49.930;8.660;2022-12-05T07:12:46;5.40;99.90
17341;DHT22;8788;49.930;8.660;2022-12-05T07:15:13;5.40;99.90
17341;DHT22;8788;49.930;8.660;2022-12-05T07:17:41;5.40;99.90
17341;DHT22;8788;49.930;8.660;2022-12-05T07:20:10;5.40;99.90
17341;DHT22;8788;49.930;8.660;2022-12-05T07:22:37;5.50;99.90
17341;DHT22;8788;49.930;8.660;2022-12-05T07:25:05;5.40;99.90
17341;DHT22;8788;49.930;8.660;2022-12-05T07:27:32;5.40;99.90
17341;DHT22;8788;49.930;8.660;2022-12-05T07:30:00;5.40;99.90
17341;DHT22;8788;49.930;8.660;2022-12-05T07:32:30;5.40;99.90
17341;DHT22;8788;49.930;8.660;2022-12-05T07:34:57;5.50;99.90
17341;DHT22;8788;49.930;8.660;2022-12-05T07:37:26;5.40;99.90
17341;DHT22;8788;49.930;8.660;2022-12-05T07:39:53;5.40;99.90
17341;DHT22;8788;49.930;8.660;2022-12-05T07:42:20;5.50;99.90
17341;DHT22;8788;49.930;8.660;2022-12-05T07:44:47;5.50;99.90
17341;DHT22;8788;49.930;8.660;2022-12-05T07:47:14;5.50;99.90
17341;DHT22;8788;49.930;8.660;2022-12-05T07:49:41;5.60;99.90
17341;DHT22;8788;49.930;8.660;2022-12-05T07:52:08;5.60;99.90
17341;DHT22;8788;49.930;8.660;2022-12-05T07:54:37;5.60;99.90
17341;DHT22;8788;49.930;8.660;2022-12-05T07:57:04;5.60;99.90
17341;DHT22;8788;49.930;8.660;2022-12-05T07:59:31;5.60;99.90
17341;DHT22;8788;49.930;8.660;2022-12-05T08:01:58;5.60;99.90
17341;DHT22;8788;49.930;8.660;2022-12-05T08:04:25;5.70;99.90
17341;DHT22;8788;49.930;8.660;2022-12-05T08:06:52;5.70;99.90
17341;DHT22;8788;49.930;8.660;2022-12-05T08:09:19;5.70;99.90
17341;DHT22;8788;49.930;8.660;2022-12-05T08:11:48;5.60;99.90
17341;DHT22;8788;49.930;8.660;2022-12-05T08:14:15;5.60;99.90
17341;DHT22;8788;49.930;8.660;2022-12-05T08:16:42;5.60;99.90
17341;DHT22;8788;49.930;8.660;2022-12-05T08:19:10;5.60;99.90
17341;DHT22;8788;49.930;8.660;2022-12-05T08:21:38;5.60;99.90
17341;DHT22;8788;49.930;8.660;2022-12-05T08:24:07;5.60;99.90
17341;DHT22;8788;49.930;8.660;2022-12-05T08:26:35;5.60;99.90
17341;DHT22;8788;49.930;8.660;2022-12-05T08:29:05;5.50;99.90
17341;DHT22;8788;49.930;8.660;2022-12-05T08:31:35;5.60;99.90
17341;DHT22;8788;49.930;8.660;2022-12-05T08:34:02;5.60;99.90
17341;DHT22;8788;49.930;8.660;2022-12-05T08:36:30;5.70;99.90
17341;DHT22;8788;49.930;8.660;2022-12-05T08:38:59;5.70;99.90
17341;DHT22;8788;49.930;8.660;2022-12-05T08:41:27;5.70;99.90
17341;DHT22;8788;49.930;8.660;2022-12-05T08:43:55;5.80;99.90
17341;DHT22;8788;49.930;8.660;2022-12-05T08:46:24;5.80;99.90
17341;DHT22;8788;49.930;8.660;2022-12-05T08:48:51;5.80;99.90
17341;DHT22;8788;49.930;8.660;2022-12-05T08:51:18;5.80;99.90
17341;DHT22;8788;49.930;8.660;2022-12-05T08:53:45;5.80;99.90
17341;DHT22;8788;49.930;8.660;2022-12-05T08:56:12;5.90;99.90
17341;DHT22;8788;49.930;8.660;2022-12-05T08:58:40;6.00;99.90
17341;DHT22;8788;49.930;8.660;2022-12-05T09:01:09;6.00;99.90
17341;DHT22;8788;49.930;8.660;2022-12-05T09:03:38;6.00;99.90
17341;DHT22;8788;49.930;8.660;2022-12-05T09:06:06;6.00;99.90
17341;DHT22;8788;49.930;8.660;2022-12-05T09:08:33;6.00;99.90
17341;DHT22;8788;49.930;8.660;2022-12-05T09:11:04;6.00;99.90
17341;DHT22;8788;49.930;8.660;2022-12-05T09:13:32;6.00;99.90
17341;DHT22;8788;49.930;8.660;2022-12-05T09:16:04;6.00;99.90
17341;DHT22;8788;49.930;8.660;2022-12-05T09:18:31;6.00;99.90
17341;DHT22;8788;49.930;8.660;2022-12-05T09:21:05;6.00;99.90
17341;DHT22;8788;49.930;8.660;2022-12-05T09:23:32;6.00;99.90
17341;DHT22;8788;49.930;8.660;2022-12-05T09:26:01;6.00;99.90
17341;DHT22;8788;49.930;8.660;2022-12-05T09:28:28;6.10;99.90
17341;DHT22;8788;49.930;8.660;2022-12-05T09:30:56;6.00;99.90
17341;DHT22;8788;49.930;8.660;2022-12-05T09:33:24;6.10;99.90
17341;DHT22;8788;49.930;8.660;2022-12-05T09:35:51;6.00;99.90
17341;DHT22;8788;49.930;8.660;2022-12-05T09:38:19;5.90;99.90
17341;DHT22;8788;49.930;8.660;2022-12-05T09:40:49;6.00;99.90
17341;DHT22;8788;49.930;8.660;2022-12-05T09:43:22;6.00;99.90
17341;DHT22;8788;49.930;8.660;2022-12-05T09:45:55;6.10;99.90
17341;DHT22;8788;49.930;8.660;2022-12-05T09:48:26;6.20;99.90
17341;DHT22;8788;49.930;8.660;2022-12-05T09:50:56;6.20;99.90
17341;DHT22;8788;49.930;8.660;2022-12-05T09:53:28;6.20;99.90
17341;DHT22;8788;49.930;8.660;2022-12-05T09:56:01;6.10;99.90
17341;DHT22;8788;49.930;8.660;2022-12-05T09:58:39;6.20;99.90
17341;DHT22;8788;49.930;8.660;2022-12-05T10:01:30;6.20;99.90
17341;DHT22;8788;49.930;8.660;2022-12-05T10:04:11;6.30;99.90
17341;DHT22;8788;49.930;8.660;2022-12-05T10:06:49;6.20;99.90
17341;DHT22;8788;49.930;8.660;2022-12-05T10:09:31;6.20;99.90
17341;DHT22;8788;49.930;8.660;2022-12-05T10:12:08;6.30;99.90
17341;DHT22;8788;49.930;8.660;2022-12-05T10:14:46;6.30;99.90
17341;DHT22;8788;49.930;8.660;2022-12-05T10:17:21;6.40;99.90
17341;DHT22;8788;49.930;8.660;2022-12-05T10:19:51;6.50;99.90
17341;DHT22;8788;49.930;8.660;2022-12-05T10:22:23;6.50;99.90
17341;DHT22;8788;49.930;8.660;2022-12-05T10:24:54;6.50;99.90
17341;DHT22;8788;49.930;8.660;2022-12-05T10:27:30;6.50;99.90
17341;DHT22;8788;49.930;8.660;2022-12-05T10:30:01;6.50;99.90
17341;DHT22;8788;49.930;8.660;2022-12-05T10:32:34;6.40;99.90
17341;DHT22;8788;49.930;8.660;2022-12-05T10:35:15;6.40;99.90
17341;DHT22;8788;49.930;8.660;2022-12-05T10:37:45;6.40;99.90
17341;DHT22;8788;49.930;8.660;2022-12-05T10:40:16;6.40;99.90
17341;DHT22;8788;49.930;8.660;2022-12-05T10:42:43;6.30;99.90
17341;DHT22;8788;49.930;8.660;2022-12-05T10:45:17;6.20;99.90
17341;DHT22;8788;49.930;8.660;2022-12-05T10:47:45;6.20;99.90
17341;DHT22;8788;49.930;8.660;2022-12-05T10:50:31;6.20;99.90
17341;DHT22;8788;49.930;8.660;2022-12-05T10:53:00;6.30;99.90
17341;DHT22;8788;49.930;8.660;2022-12-05T10:55:33;6.30;99.90
17341;DHT22;8788;49.930;8.660;2022-12-05T10:58:10;6.30;99.90
17341;DHT22;8788;49.930;8.660;2022-12-05T11:00:38;6.40;99.90
17341;DHT22;8788;49.930;8.660;2022-12-05T11:03:22;6.50;99.90
17341;DHT22;8788;49.930;8.660;2022-12-05T11:05:51;6.50;99.90
17341;DHT22;8788;49.930;8.660;2022-12-05T11:08:21;6.50;99.90
17341;DHT22;8788;49.930;8.660;2022-12-05T11:10:59;6.40;99.90
17341;DHT22;8788;49.930;8.660;2022-12-05T11:13:27;6.30;99.90
17341;DHT22;8788;49.930;8.660;2022-12-05T11:15:54;6.30;99.90
17341;DHT22;8788;49.930;8.660;2022-12-05T11:18:27;6.30;99.90
17341;DHT22;8788;49.930;8.660;2022-12-05T11:20:55;6.40;99.90
17341;DHT22;8788;49.930;8.660;2022-12-05T11:23:25;6.40;99.90
17341;DHT22;8788;49.930;8.660;2022-12-05T11:25:54;6.30;99.90
17341;DHT22;8788;49.930;8.660;2022-12-05T11:28:34;6.30;99.90
17341;DHT22;8788;49.930;8.660;2022-12-05T11:31:04;6.30;99.90
17341;DHT22;8788;49.930;8.660;2022-12-05T11:33:34;6.30;99.90
17341;DHT22;8788;49.930;8.660;2022-12-05T11:36:05;6.30;99.90
17341;DHT22;8788;49.930;8.660;2022-12-05T11:38:36;6.40;99.90
17341;DHT22;8788;49.930;8.660;2022-12-05T11:41:26;6.30;99.90
17341;DHT22;8788;49.930;8.660;2022-12-05T11:47:09;6.30;99.90
17341;DHT22;8788;49.930;8.660;2022-12-05T11:50:02;6.20;99.90
17341;DHT22;8788;49.930;8.660;2022-12-05T11:52:40;6.20;99.90
17341;DHT22;8788;49.930;8.660;2022-12-05T11:55:14;6.10;99.90
17341;DHT22;8788;49.930;8.660;2022-12-05T12:00:49;6.20;99.90
17341;DHT22;8788;49.930;8.660;2022-12-05T12:03:36;6.30;99.90
17341;DHT22;8788;49.930;8.660;2022-12-05T12:06:25;6.20;99.90
17341;DHT22;8788;49.930;8.660;2022-12-05T12:09:16;6.20;99.90
17341;DHT22;8788;49.930;8.660;2022-12-05T12:11:49;6.20;99.90
17341;DHT22;8788;49.930;8.660;2022-12-05T12:14:25;6.30;99.90
17341;DHT22;8788;49.930;8.660;2022-12-05T12:17:05;6.40;99.90
17341;DHT22;8788;49.930;8.660;2022-12-05T12:19:43;6.50;99.90
17341;DHT22;8788;49.930;8.660;2022-12-05T12:22:27;6.40;99.90
17341;DHT22;8788;49.930;8.660;2022-12-05T12:25:14;6.50;99.90
17341;DHT22;8788;49.930;8.660;2022-12-05T12:27:54;6.50;99.90
17341;DHT22;8788;49.930;8.660;2022-12-05T12:30:36;6.40;99.90
17341;DHT22;8788;49.930;8.660;2022-12-05T12:33:08;6.50;99.90
17341;DHT22;8788;49.930;8.660;2022-12-05T12:35:44;6.50;99.90
17341;DHT22;8788;49.930;8.660;2022-12-05T12:38:41;6.60;99.90
17341;DHT22;8788;49.930;8.660;2022-12-05T12:41:29;6.60;99.90
17341;DHT22;8788;49.930;8.660;2022-12-05T12:44:06;6.70;99.90
17341;DHT22;8788;49.930;8.660;2022-12-05T12:46:44;6.70;99.90
17341;DHT22;8788;49.930;8.660;2022-12-05T12:49:34;6.70;99.90
17341;DHT22;8788;49.930;8.660;2022-12-05T12:52:11;6.70;99.90
17341;DHT22;8788;49.930;8.660;2022-12-05T12:57:42;6.60;99.90
17341;DHT22;8788;49.930;8.660;2022-12-05T13:00:21;6.60;99.90
17341;DHT22;8788;49.930;8.660;2022-12-05T13:02:52;6.60;99.90
17341;DHT22;8788;49.930;8.660;2022-12-05T13:05:28;6.60;99.90
17341;DHT22;8788;49.930;8.660;2022-12-05T13:08:00;6.70;99.90
17341;DHT22;8788;49.930;8.660;2022-12-05T13:10:33;6.60;99.90
17341;DHT22;8788;49.930;8.660;2022-12-05T13:13:03;6.60;99.90
17341;DHT22;8788;49.930;8.660;2022-12-05T13:15:34;6.60;99.90
17341;DHT22;8788;49.930;8.660;2022-12-05T13:18:04;6.50;99.90
17341;DHT22;8788;49.930;8.660;2022-12-05T13:20:33;6.50;99.90
17341;DHT22;8788;49.930;8.660;2022-12-05T13:23:03;6.60;99.90
17341;DHT22;8788;49.930;8.660;2022-12-05T13:25:34;6.60;99.90
17341;DHT22;8788;49.930;8.660;2022-12-05T13:28:05;6.60;99.90
17341;DHT22;8788;49.930;8.660;2022-12-05T13:30:35;6.60;99.90
17341;DHT22;8788;49.930;8.660;2022-12-05T13:33:25;6.60;99.90
17341;DHT22;8788;49.930;8.660;2022-12-05T13:35:55;6.60;99.90
17341;DHT22;8788;49.930;8.660;2022-12-05T13:38:41;6.70;99.90
17341;DHT22;8788;49.930;8.660;2022-12-05T13:41:39;6.70;99.90
17341;DHT22;8788;49.930;8.660;2022-12-05T13:44:30;6.70;99.90
17341;DHT22;8788;49.930;8.660;2022-12-05T13:46:59;6.80;99.90
17341;DHT22;8788;49.930;8.660;2022-12-05T13:49:34;6.80;99.90
17341;DHT22;8788;49.930;8.660;2022-12-05T13:52:07;6.80;99.90
17341;DHT22;8788;49.930;8.660;2022-12-05T13:54:42;6.70;99.90
17341;DHT22;8788;49.930;8.660;2022-12-05T13:57:51;6.70;99.90
17341;DHT22;8788;49.930;8.660;2022-12-05T14:00:32;6.70;99.90
17341;DHT22;8788;49.930;8.660;2022-12-05T14:03:04;6.70;99.90
17341;DHT22;8788;49.930;8.660;2022-12-05T14:05:37;6.70;99.90
17341;DHT22;8788;49.930;8.660;2022-12-05T14:11:13;6.70;99.90
17341;DHT22;8788;49.930;8.660;2022-12-05T14:13:43;6.70;99.90
17341;DHT22;8788;49.930;8.660;2022-12-05T14:20:18;6.70;99.90
17341;DHT22;8788;49.930;8.660;2022-12-05T14:22:59;6.70;99.90
17341;DHT22;8788;49.930;8.660;2022-12-05T14:25:56;6.70;99.90
17341;DHT22;8788;49.930;8.660;2022-12-05T14:28:42;6.60;99.90
17341;DHT22;8788;49.930;8.660;2022-12-05T14:31:23;6.70;99.90
17341;DHT22;8788;49.930;8.660;2022-12-05T14:34:08;6.70;99.90
17341;DHT22;8788;49.930;8.660;2022-12-05T14:36:51;6.70;99.90
17341;DHT22;8788;49.930;8.660;2022-12-05T14:39:27;6.80;99.90
17341;DHT22;8788;49.930;8.660;2022-12-05T14:41:57;6.80;99.90
17341;DHT22;8788;49.930;8.660;2022-12-05T14:44:25;6.90;99.90
17341;DHT22;8788;49.930;8.660;2022-12-05T14:46:59;6.90;99.90
17341;DHT22;8788;49.930;8.660;2022-12-05T14:52:21;6.90;99.90
17341;DHT22;8788;49.930;8.660;2022-12-05T14:54:50;6.90;99.90
17341;DHT22;8788;49.930;8.660;2022-12-05T14:57:18;7.00;99.90
17341;DHT22;8788;49.930;8.660;2022-12-05T14:59:51;6.90;99.90
17341;DHT22;8788;49.930;8.660;2022-12-05T15:02:24;7.00;99.90
17341;DHT22;8788;49.930;8.660;2022-12-05T15:04:57;6.90;99.90
17341;DHT22;8788;49.930;8.660;2022-12-05T15:07:30;6.90;99.90
17341;DHT22;8788;49.930;8.660;2022-12-05T15:10:00;6.80;99.90
17341;DHT22;8788;49.930;8.660;2022-12-05T15:12:31;6.90;99.90
17341;DHT22;8788;49.930;8.660;2022-12-05T15:15:09;6.90;99.90
17341;DHT22;8788;49.930;8.660;2022-12-05T15:17:44;6.90;99.90
17341;DHT22;8788;49.930;8.660;2022-12-05T15:20:24;6.90;99.90
17341;DHT22;8788;49.930;8.660;2022-12-05T15:22:53;6.90;99.90
17341;DHT22;8788;49.930;8.660;2022-12-05T15:25:24;6.80;99.90
17341;DHT22;8788;49.930;8.660;2022-12-05T15:27:58;6.80;99.90
17341;DHT22;8788;49.930;8.660;2022-12-05T15:30:26;6.80;99.90
17341;DHT22;8788;49.930;8.660;2022-12-05T15:32:55;6.80;99.90
17341;DHT22;8788;49.930;8.660;2022-12-05T15:35:24;6.80;99.90
17341;DHT22;8788;49.930;8.660;2022-12-05T15:37:54;6.80;99.90
17341;DHT22;8788;49.930;8.660;2022-12-05T15:40:24;6.80;99.90
17341;DHT22;8788;49.930;8.660;2022-12-05T15:42:52;6.80;99.90
17341;DHT22;8788;49.930;8.660;2022-12-05T15:45:23;6.80;99.90
17341;DHT22;8788;49.930;8.660;2022-12-05T15:47:52;6.80;99.90
17341;DHT22;8788;49.930;8.660;2022-12-05T15:50:29;6.80;99.90
17341;DHT22;8788;49.930;8.660;2022-12-05T15:53:02;6.90;99.90
17341;DHT22;8788;49.930;8.660;2022-12-05T15:55:37;6.80;99.90
17341;DHT22;8788;49.930;8.660;2022-12-05T15:58:11;6.80;99.90
17341;DHT22;8788;49.930;8.660;2022-12-05T16:00:41;6.90;99.90
17341;DHT22;8788;49.930;8.660;2022-12-05T16:03:13;6.90;99.90
17341;DHT22;8788;49.930;8.660;2022-12-05T16:05:49;6.90;99.90
17341;DHT22;8788;49.930;8.660;2022-12-05T16:08:18;6.90;99.90
17341;DHT22;8788;49.930;8.660;2022-12-05T16:10:45;6.90;99.90
17341;DHT22;8788;49.930;8.660;2022-12-05T16:13:14;6.90;99.90
17341;DHT22;8788;49.930;8.660;2022-12-05T16:15:43;7.00;99.90
17341;DHT22;8788;49.930;8.660;2022-12-05T16:18:24;7.00;99.90
17341;DHT22;8788;49.930;8.660;2022-12-05T16:20:54;7.00;99.90
17341;DHT22;8788;49.930;8.660;2022-12-05T16:23:24;6.90;99.90
17341;DHT22;8788;49.930;8.660;2022-12-05T16:25:52;6.90;99.90
17341;DHT22;8788;49.930;8.660;2022-12-05T16:28:20;6.90;99.90
17341;DHT22;8788;49.930;8.660;2022-12-05T16:30:56;7.00;99.90
17341;DHT22;8788;49.930;8.660;2022-12-05T16:33:24;6.90;99.90
17341;DHT22;8788;49.930;8.660;2022-12-05T16:35:53;6.90;99.90
17341;DHT22;8788;49.930;8.660;2022-12-05T16:38:22;6.90;99.90
17341;DHT22;8788;49.930;8.660;2022-12-05T16:40:55;7.00;99.90
17341;DHT22;8788;49.930;8.660;2022-12-05T16:43:40;7.00;99.90
17341;DHT22;8788;49.930;8.660;2022-12-05T16:49:23;6.90;99.90
17341;DHT22;8788;49.930;8.660;2022-12-05T16:51:58;6.80;99.90
17341;DHT22;8788;49.930;8.660;2022-12-05T16:54:26;6.90;99.90
17341;DHT22;8788;49.930;8.660;2022-12-05T16:56:53;6.90;99.90
17341;DHT22;8788;49.930;8.660;2022-12-05T16:59:23;6.90;99.90
17341;DHT22;8788;49.930;8.660;2022-12-05T17:01:50;6.90;99.90
17341;DHT22;8788;49.930;8.660;2022-12-05T17:04:17;6.90;99.90
17341;DHT22;8788;49.930;8.660;2022-12-05T17:06:44;6.90;99.90
17341;DHT22;8788;49.930;8.660;2022-12-05T17:09:13;6.90;99.90
17341;DHT22;8788;49.930;8.660;2022-12-05T17:11:42;6.80;99.90
17341;DHT22;8788;49.930;8.660;2022-12-05T17:14:13;6.90;99.90
17341;DHT22;8788;49.930;8.660;2022-12-05T17:16:40;6.90;99.90
17341;DHT22;8788;49.930;8.660;2022-12-05T17:19:08;6.90;99.90
17341;DHT22;8788;49.930;8.660;2022-12-05T17:21:36;6.80;99.90
17341;DHT22;8788;49.930;8.660;2022-12-05T17:24:05;6.80;99.90
17341;DHT22;8788;49.930;8.660;2022-12-05T17:26:33;6.80;99.90
17341;DHT22;8788;49.930;8.660;2022-12-05T17:29:00;6.70;99.90
17341;DHT22;8788;49.930;8.660;2022-12-05T17:31:27;6.80;99.90
17341;DHT22;8788;49.930;8.660;2022-12-05T17:33:55;6.80;99.90
17341;DHT22;8788;49.930;8.660;2022-12-05T17:36:22;6.80;99.90
17341;DHT22;8788;49.930;8.660;2022-12-05T17:38:50;6.80;99.90
17341;DHT22;8788;49.930;8.660;2022-12-05T17:41:18;6.80;99.90
17341;DHT22;8788;49.930;8.660;2022-12-05T17:43:47;6.70;99.90
17341;DHT22;8788;49.930;8.660;2022-12-05T17:46:17;6.70;99.90
17341;DHT22;8788;49.930;8.660;2022-12-05T17:48:44;6.80;99.90
17341;DHT22;8788;49.930;8.660;2022-12-05T17:51:12;6.70;99.90
17341;DHT22;8788;49.930;8.660;2022-12-05T17:53:39;6.70;99.90
17341;DHT22;8788;49.930;8.660;2022-12-05T17:56:07;6.80;99.90
17341;DHT22;8788;49.930;8.660;2022-12-05T17:58:34;6.80;99.90
17341;DHT22;8788;49.930;8.660;2022-12-05T18:01:03;6.90;99.90
17341;DHT22;8788;49.930;8.660;2022-12-05T18:03:31;6.80;99.90
17341;DHT22;8788;49.930;8.660;2022-12-05T18:05:58;6.80;99.90
17341;DHT22;8788;49.930;8.660;2022-12-05T18:08:26;6.80;99.90
17341;DHT22;8788;49.930;8.660;2022-12-05T18:10:55;6.80;99.90
17341;DHT22;8788;49.930;8.660;2022-12-05T18:13:22;6.70;99.90
17341;DHT22;8788;49.930;8.660;2022-12-05T18:15:55;6.70;99.90
17341;DHT22;8788;49.930;8.660;2022-12-05T18:18:24;6.80;99.90
17341;DHT22;8788;49.930;8.660;2022-12-05T18:20:52;6.80;99.90
17341;DHT22;8788;49.930;8.660;2022-12-05T18:23:19;6.70;99.90
17341;DHT22;8788;49.930;8.660;2022-12-05T18:25:56;6.70;99.90
17341;DHT22;8788;49.930;8.660;2022-12-05T18:28:23;6.70;99.90
17341;DHT22;8788;49.930;8.660;2022-12-05T18:30:57;6.70;99.90
17341;DHT22;8788;49.930;8.660;2022-12-05T18:33:29;6.70;99.90
17341;DHT22;8788;49.930;8.660;2022-12-05T18:35:56;6.70;99.90
17341;DHT22;8788;49.930;8.660;2022-12-05T18:38:23;6.60;99.90
17341;DHT22;8788;49.930;8.660;2022-12-05T18:40:58;6.60;99.90
17341;DHT22;8788;49.930;8.660;2022-12-05T18:43:25;6.70;99.90
17341;DHT22;8788;49.930;8.660;2022-12-05T18:45:54;6.70;99.90
17341;DHT22;8788;49.930;8.660;2022-12-05T18:48:21;6.70;99.90
17341;DHT22;8788;49.930;8.660;2022-12-05T18:50:51;6.70;99.90
17341;DHT22;8788;49.930;8.660;2022-12-05T18:53:18;6.70;99.90
17341;DHT22;8788;49.930;8.660;2022-12-05T18:55:45;6.70;99.90
17341;DHT22;8788;49.930;8.660;2022-12-05T18:58:12;6.70;99.90
17341;DHT22;8788;49.930;8.660;2022-12-05T19:00:39;6.70;99.90
17341;DHT22;8788;49.930;8.660;2022-12-05T19:03:06;6.70;99.90
17341;DHT22;8788;49.930;8.660;2022-12-05T19:05:33;6.70;99.90
17341;DHT22;8788;49.930;8.660;2022-12-05T19:08:02;6.70;99.90
17341;DHT22;8788;49.930;8.660;2022-12-05T19:10:29;6.70;99.90
17341;DHT22;8788;49.930;8.660;2022-12-05T19:12:56;6.70;99.90
17341;DHT22;8788;49.930;8.660;2022-12-05T19:15:23;6.80;99.90
17341;DHT22;8788;49.930;8.660;2022-12-05T19:17:51;6.70;99.90
17341;DHT22;8788;49.930;8.660;2022-12-05T19:20:18;6.80;99.90
17341;DHT22;8788;49.930;8.660;2022-12-05T19:22:45;6.80;99.90
17341;DHT22;8788;49.930;8.660;2022-12-05T19:25:14;6.80;99.90
17341;DHT22;8788;49.930;8.660;2022-12-05T19:27:41;6.80;99.90
17341;DHT22;8788;49.930;8.660;2022-12-05T19:30:09;6.80;99.90
17341;DHT22;8788;49.930;8.660;2022-12-05T19:32:36;6.80;99.90
17341;DHT22;8788;49.930;8.660;2022-12-05T19:35:03;6.80;99.90
17341;DHT22;8788;49.930;8.660;2022-12-05T19:37:31;6.80;99.90
17341;DHT22;8788;49.930;8.660;2022-12-05T19:39:58;6.70;99.90
17341;DHT22;8788;49.930;8.660;2022-12-05T19:42:27;6.80;99.90
17341;DHT22;8788;49.930;8.660;2022-12-05T19:44:55;6.80;99.90
17341;DHT22;8788;49.930;8.660;2022-12-05T19:47:22;6.80;99.90
17341;DHT22;8788;49.930;8.660;2022-12-05T19:49:49;6.80;99.90
17341;DHT22;8788;49.930;8.660;2022-12-05T19:52:17;6.80;99.90
17341;DHT22;8788;49.930;8.660;2022-12-05T19:54:44;6.80;99.90
17341;DHT22;8788;49.930;8.660;2022-12-05T19:57:11;6.70;99.90
17341;DHT22;8788;49.930;8.660;2022-12-05T19:59:39;6.70;99.90
17341;DHT22;8788;49.930;8.660;2022-12-05T20:02:07;6.70;99.90
17341;DHT22;8788;49.930;8.660;2022-12-05T20:04:34;6.70;99.90
17341;DHT22;8788;49.930;8.660;2022-12-05T20:07:01;6.60;99.90
17341;DHT22;8788;49.930;8.660;2022-12-05T20:09:28;6.60;99.90
17341;DHT22;8788;49.930;8.660;2022-12-05T20:11:57;6.80;99.90
17341;DHT22;8788;49.930;8.660;2022-12-05T20:14:24;6.80;99.90
17341;DHT22;8788;49.930;8.660;2022-12-05T20:16:53;6.70;99.90
17341;DHT22;8788;49.930;8.660;2022-12-05T20:19:20;6.70;99.90
17341;DHT22;8788;49.930;8.660;2022-12-05T20:21:47;6.60;99.90
17341;DHT22;8788;49.930;8.660;2022-12-05T20:24:15;6.60;99.90
17341;DHT22;8788;49.930;8.660;2022-12-05T20:26:42;6.50;99.90
17341;DHT22;8788;49.930;8.660;2022-12-05T20:29:10;6.50;99.90
17341;DHT22;8788;49.930;8.660;2022-12-05T20:31:38;6.50;99.90
17341;DHT22;8788;49.930;8.660;2022-12-05T20:34:11;6.50;99.90
17341;DHT22;8788;49.930;8.660;2022-12-05T20:36:39;6.60;99.90
17341;DHT22;8788;49.930;8.660;2022-12-05T20:39:09;6.60;99.90
17341;DHT22;8788;49.930;8.660;2022-12-05T20:41:36;6.60;99.90
17341;DHT22;8788;49.930;8.660;2022-12-05T20:44:05;6.60;99.90
17341;DHT22;8788;49.930;8.660;2022-12-05T20:46:33;6.50;99.90
17341;DHT22;8788;49.930;8.660;2022-12-05T20:49:01;6.50;99.90
17341;DHT22;8788;49.930;8.660;2022-12-05T20:51:31;6.50;99.90